createdAt,value
2023-02-22T00:01:42.875Z,11.68
2023-02-22T00:04:11.495Z,13.05
2023-02-22T00:06:39.551Z,12.15
2023-02-22T00:09:09.179Z,11.40
2023-02-22T00:11:36.240Z,12.25
2023-02-22T00:14:03.269Z,12.52
2023-02-22T00:16:31.021Z,13.07
2023-02-22T00:18:58.114Z,13.40
2023-02-22T00:21:25.128Z,13.10
2023-02-22T00:23:54.570Z,12.93
2023-02-22T00:26:23.350Z,13.45
2023-02-22T00:28:51.888Z,12.80
2023-02-22T00:31:19.997Z,14.00
2023-02-22T00:33:47.303Z,15.18
2023-02-22T00:36:14.869Z,13.52
2023-02-22T00:38:42.255Z,11.00
2023-02-22T00:41:12.261Z,13.50
2023-02-22T00:43:39.328Z,12.95
2023-02-22T00:46:06.393Z,13.20
2023-02-22T00:48:33.469Z,13.90
2023-02-22T00:51:00.478Z,14.43
2023-02-22T00:53:27.569Z,15.02
2023-02-22T00:55:54.643Z,14.82
2023-02-22T00:58:22.173Z,13.57
2023-02-22T01:00:49.570Z,13.23
2023-02-22T01:03:18.211Z,12.43
2023-02-22T01:05:45.513Z,12.60
2023-02-22T01:08:13.905Z,11.10
2023-02-22T01:10:41.136Z,11.07
2023-02-22T01:13:11.927Z,13.35
2023-02-22T01:15:39.947Z,11.70
2023-02-22T01:18:07.394Z,12.02
2023-02-22T01:20:34.509Z,14.45
2023-02-22T01:23:03.545Z,13.10
2023-02-22T01:25:31.204Z,13.52
2023-02-22T01:27:59.152Z,14.10
2023-02-22T01:30:30.703Z,13.15
2023-02-22T01:32:58.095Z,13.10
2023-02-22T01:35:27.816Z,11.40
2023-02-22T01:37:54.919Z,12.68
2023-02-22T01:40:27.056Z,11.85
2023-02-22T01:42:57.615Z,12.50
2023-02-22T01:45:30.946Z,11.90
2023-02-22T01:48:00.631Z,11.25
2023-02-22T01:50:28.210Z,12.00
2023-02-22T01:52:55.478Z,11.88
2023-02-22T01:55:22.611Z,11.48
2023-02-22T01:57:49.763Z,9.98
2023-02-22T02:00:20.164Z,12.05
2023-02-22T02:02:54.665Z,10.77
2023-02-22T02:05:24.163Z,11.57
2023-02-22T02:07:51.357Z,12.30
2023-02-22T02:10:18.400Z,13.10
2023-02-22T02:12:48.153Z,12.43
2023-02-22T02:15:32.442Z,11.95
2023-02-22T02:18:01.291Z,11.50
2023-02-22T02:20:47.129Z,9.38
2023-02-22T02:23:33.070Z,10.75
2023-02-22T02:26:18.528Z,10.95
2023-02-22T02:28:51.335Z,10.63
2023-02-22T02:31:37.037Z,10.95
2023-02-22T02:34:16.539Z,11.43
2023-02-22T02:36:46.965Z,10.15
2023-02-22T02:39:52.661Z,9.95
2023-02-22T02:42:22.245Z,10.48
2023-02-22T02:44:59.171Z,11.05
2023-02-22T02:47:29.566Z,11.88
2023-02-22T02:50:08.774Z,11.00
2023-02-22T02:52:36.107Z,10.10
2023-02-22T02:55:06.890Z,10.10
2023-02-22T02:57:34.209Z,10.88
2023-02-22T03:00:01.342Z,9.60
2023-02-22T03:02:57.816Z,10.13
2023-02-22T03:05:41.494Z,8.75
2023-02-22T03:08:14.317Z,8.57
2023-02-22T03:10:50.327Z,10.43
2023-02-22T03:13:25.220Z,10.85
2023-02-22T03:15:56.981Z,9.52
2023-02-22T03:18:28.967Z,10.90
2023-02-22T03:21:01.691Z,10.60
2023-02-22T03:23:31.701Z,11.80
2023-02-22T03:26:05.316Z,9.05
2023-02-22T03:28:34.022Z,9.48
2023-02-22T03:31:03.308Z,9.57
2023-02-22T03:33:36.297Z,9.05
2023-02-22T03:36:18.692Z,9.30
2023-02-22T03:38:46.606Z,9.95
2023-02-22T03:41:16.149Z,8.57
2023-02-22T03:43:45.537Z,9.18
2023-02-22T03:46:13.322Z,8.77
2023-02-22T03:48:46.340Z,9.30
2023-02-22T03:51:16.776Z,8.27
2023-02-22T03:53:44.638Z,9.25
2023-02-22T03:56:13.965Z,8.05
2023-02-22T03:58:44.393Z,7.45
2023-02-22T04:01:11.924Z,7.68
2023-02-22T04:03:40.159Z,8.27
2023-02-22T04:06:07.386Z,7.93
2023-02-22T04:08:35.098Z,8.65
2023-02-22T04:11:02.109Z,8.38
2023-02-22T04:13:29.552Z,7.40
2023-02-22T04:15:56.610Z,8.02
2023-02-22T04:18:23.683Z,10.30
2023-02-22T04:20:51.617Z,8.18
2023-02-22T04:23:19.567Z,8.57
2023-02-22T04:25:46.646Z,8.82
2023-02-22T04:28:13.727Z,8.90
2023-02-22T04:30:40.849Z,7.55
2023-02-22T04:33:07.891Z,8.93
2023-02-22T04:35:35.646Z,9.13
2023-02-22T04:38:04.294Z,8.73
2023-02-22T04:40:31.402Z,9.57
2023-02-22T04:43:00.331Z,7.65
2023-02-22T04:45:27.550Z,8.55
2023-02-22T04:47:54.682Z,7.00
2023-02-22T04:50:21.903Z,8.23
2023-02-22T04:52:48.938Z,8.60
2023-02-22T04:55:16.691Z,10.13
2023-02-22T04:57:43.792Z,7.93
2023-02-22T05:00:11.170Z,7.85
2023-02-22T05:02:41.506Z,7.68
2023-02-22T05:05:08.609Z,7.60
2023-02-22T05:07:35.642Z,7.95
2023-02-22T05:10:02.878Z,7.65
2023-02-22T05:12:29.975Z,7.90
2023-02-22T05:14:57.110Z,8.05
2023-02-22T05:17:24.189Z,7.85
2023-02-22T05:19:51.263Z,7.15
2023-02-22T05:22:18.459Z,7.72
2023-02-22T05:24:45.523Z,8.10
2023-02-22T05:27:12.549Z,8.10
2023-02-22T05:29:39.698Z,7.53
2023-02-22T05:32:06.889Z,8.25
2023-02-22T05:34:33.939Z,7.85
2023-02-22T05:37:01.056Z,9.38
2023-02-22T05:39:28.089Z,7.93
2023-02-22T05:41:55.102Z,10.07
2023-02-22T05:44:22.176Z,9.55
2023-02-22T05:46:49.217Z,11.18
2023-02-22T05:49:16.451Z,9.00
2023-02-22T05:51:43.487Z,10.20
2023-02-22T05:54:10.570Z,9.63
2023-02-22T05:56:37.653Z,8.93
2023-02-22T05:59:04.780Z,8.55
2023-02-22T06:01:31.853Z,10.85
2023-02-22T06:03:58.885Z,8.02
2023-02-22T06:06:26.031Z,9.55
2023-02-22T06:08:53.097Z,8.70
2023-02-22T06:11:20.377Z,9.65
2023-02-22T06:13:51.535Z,10.60
2023-02-22T06:16:18.776Z,9.85
2023-02-22T06:18:45.990Z,9.43
2023-02-22T06:21:13.081Z,9.45
2023-02-22T06:23:40.098Z,7.88
2023-02-22T06:26:07.114Z,8.88
2023-02-22T06:28:34.188Z,8.75
2023-02-22T06:31:01.225Z,11.27
2023-02-22T06:33:28.286Z,8.05
2023-02-22T06:35:55.387Z,10.50
2023-02-22T06:38:23.188Z,10.52
2023-02-22T06:40:50.223Z,11.10
2023-02-22T06:43:17.350Z,9.48
2023-02-22T06:45:44.406Z,10.65
2023-02-22T06:48:11.420Z,10.70
2023-02-22T06:50:38.490Z,10.55
2023-02-22T06:53:05.868Z,8.82
2023-02-22T06:55:33.965Z,10.95
2023-02-22T06:58:01.477Z,9.80
2023-02-22T07:00:29.117Z,11.63
2023-02-22T07:02:56.704Z,13.80
2023-02-22T07:05:24.411Z,10.80
2023-02-22T07:07:55.332Z,11.25
2023-02-22T07:10:24.068Z,12.88
2023-02-22T07:12:52.453Z,11.00
2023-02-22T07:15:21.485Z,10.43
2023-02-22T07:17:49.012Z,12.70
2023-02-22T07:20:16.664Z,11.15
2023-02-22T07:22:43.795Z,11.52
2023-02-22T07:25:11.409Z,11.93
2023-02-22T07:27:39.299Z,11.25
2023-02-22T07:30:07.458Z,10.65
2023-02-22T07:32:34.569Z,10.88
2023-02-22T07:35:02.855Z,10.88
2023-02-22T07:37:30.260Z,11.43
2023-02-22T07:39:57.329Z,11.55
2023-02-22T07:42:24.354Z,10.30
2023-02-22T07:44:51.358Z,10.15
2023-02-22T07:47:20.586Z,11.60
2023-02-22T07:49:48.780Z,10.90
2023-02-22T07:52:17.571Z,10.05
2023-02-22T07:54:47.346Z,9.48
2023-02-22T07:57:14.403Z,10.48
2023-02-22T07:59:41.433Z,9.77
2023-02-22T08:02:15.890Z,9.25
2023-02-22T08:04:42.950Z,10.63
2023-02-22T08:07:10.061Z,10.55
2023-02-22T08:09:37.225Z,9.02
2023-02-22T08:12:04.308Z,9.32
2023-02-22T08:14:31.329Z,10.23
2023-02-22T08:16:58.397Z,9.98
2023-02-22T08:19:25.469Z,9.88
2023-02-22T08:21:52.588Z,9.95
2023-02-22T08:24:19.661Z,11.75
2023-02-22T08:26:47.206Z,15.45
2023-02-22T08:29:14.258Z,11.25
2023-02-22T08:31:41.616Z,10.60
2023-02-22T08:34:08.640Z,9.23
2023-02-22T08:36:35.725Z,9.82
2023-02-22T08:39:02.864Z,7.65
2023-02-22T08:41:30.331Z,8.90
2023-02-22T08:44:01.475Z,8.45
2023-02-22T08:46:28.848Z,9.18
2023-02-22T08:48:55.883Z,8.40
2023-02-22T08:51:23.003Z,10.20
2023-02-22T08:53:50.135Z,9.73
2023-02-22T08:56:17.142Z,9.10
2023-02-22T08:58:44.156Z,9.33
2023-02-22T09:01:11.191Z,8.83
2023-02-22T09:03:38.418Z,8.40
2023-02-22T09:06:08.008Z,7.93
2023-02-22T09:08:37.131Z,8.90
2023-02-22T09:11:04.205Z,9.50
2023-02-22T09:13:31.344Z,9.00
2023-02-22T09:15:58.391Z,8.17
2023-02-22T09:18:38.973Z,9.23
2023-02-22T09:21:11.703Z,9.50
2023-02-22T09:23:38.742Z,9.13
2023-02-22T09:26:10.889Z,9.43
2023-02-22T09:28:37.940Z,9.73
2023-02-22T09:31:05.046Z,9.60
2023-02-22T09:33:34.134Z,9.77
2023-02-22T09:36:02.382Z,10.80
2023-02-22T09:38:30.273Z,11.10
2023-02-22T09:41:12.175Z,9.40
2023-02-22T09:43:52.716Z,11.20
2023-02-22T09:46:37.129Z,12.10
2023-02-22T09:49:07.547Z,12.80
2023-02-22T09:52:03.892Z,12.20
2023-02-22T09:54:39.596Z,12.10
2023-02-22T09:57:09.809Z,16.17
2023-02-22T09:59:57.476Z,14.43
2023-02-22T10:02:28.453Z,15.60
2023-02-22T10:05:14.546Z,13.93
2023-02-22T10:07:45.791Z,13.03
2023-02-22T10:10:18.003Z,12.60
2023-02-22T10:12:53.210Z,12.77
2023-02-22T10:15:49.357Z,11.47
2023-02-22T10:18:32.592Z,13.27
2023-02-22T10:21:07.620Z,11.70
2023-02-22T10:23:37.758Z,12.60
2023-02-22T10:26:17.094Z,12.40
2023-02-22T10:28:48.300Z,10.87
2023-02-22T10:31:21.345Z,11.70
2023-02-22T10:33:52.190Z,11.17
2023-02-22T10:36:20.457Z,9.80
2023-02-22T10:38:52.285Z,10.97
2023-02-22T10:41:30.836Z,10.00
2023-02-22T10:43:58.116Z,9.53
2023-02-22T10:46:27.697Z,10.50
2023-02-22T10:48:58.161Z,9.10
2023-02-22T10:51:25.328Z,9.30
2023-02-22T10:54:10.872Z,8.40
2023-02-22T10:56:47.561Z,9.80
2023-02-22T10:59:27.035Z,8.30
2023-02-22T11:01:54.295Z,9.07
2023-02-22T11:04:23.069Z,9.93
2023-02-22T11:06:59.299Z,8.90
2023-02-22T11:09:28.924Z,9.93
2023-02-22T11:12:12.451Z,8.97
2023-02-22T11:14:39.591Z,10.07
2023-02-22T11:17:08.700Z,9.50
2023-02-22T11:19:38.245Z,10.17
2023-02-22T11:22:09.511Z,10.10
2023-02-22T11:24:49.245Z,13.00
2023-02-22T11:27:28.711Z,9.13
2023-02-22T11:29:57.633Z,8.93
2023-02-22T11:32:24.724Z,9.70
2023-02-22T11:35:03.581Z,10.17
2023-02-22T11:37:39.475Z,8.50
2023-02-22T11:40:19.960Z,8.30
2023-02-22T11:42:47.600Z,8.20
2023-02-22T11:45:23.832Z,8.77
2023-02-22T11:47:52.459Z,8.77
2023-02-22T11:50:25.711Z,8.83
2023-02-22T11:52:57.593Z,9.10
2023-02-22T11:55:41.788Z,8.53
2023-02-22T11:58:24.574Z,7.60
2023-02-22T12:01:18.119Z,8.13
2023-02-22T12:03:51.307Z,7.93
2023-02-22T12:06:26.878Z,7.00
2023-02-22T12:08:56.903Z,7.50
2023-02-22T12:11:28.347Z,7.90
2023-02-22T12:14:13.528Z,7.20
2023-02-22T12:16:54.840Z,6.80
2023-02-22T12:19:25.194Z,7.90
2023-02-22T12:21:55.212Z,6.77
2023-02-22T12:24:24.586Z,6.50
2023-02-22T12:26:54.815Z,7.50
2023-02-22T12:29:31.058Z,7.10
2023-02-22T12:31:58.098Z,7.83
2023-02-22T12:34:28.228Z,7.50
2023-02-22T12:36:55.498Z,9.17
2023-02-22T12:39:38.229Z,8.63
2023-02-22T12:42:37.321Z,8.30
2023-02-22T12:45:11.291Z,8.77
2023-02-22T12:47:42.404Z,7.80
2023-02-22T12:50:23.406Z,9.57
2023-02-22T12:52:53.846Z,9.10
2023-02-22T12:55:45.504Z,8.03
2023-02-22T12:58:28.892Z,8.50
2023-02-22T13:01:02.819Z,9.13
2023-02-22T13:03:30.660Z,9.80
2023-02-22T13:06:18.160Z,9.73
2023-02-22T13:08:59.971Z,9.13
2023-02-22T13:11:56.405Z,8.60
2023-02-22T13:14:23.409Z,9.10
2023-02-22T13:17:02.739Z,8.30
2023-02-22T13:19:40.787Z,9.40
2023-02-22T13:22:07.843Z,8.33
2023-02-22T13:24:53.184Z,8.17
2023-02-22T13:27:23.581Z,8.20
2023-02-22T13:29:52.873Z,8.50
2023-02-22T13:32:28.727Z,8.43
2023-02-22T13:35:14.335Z,7.43
2023-02-22T13:38:00.112Z,8.37
2023-02-22T13:40:46.095Z,8.50
2023-02-22T13:43:22.315Z,8.47
2023-02-22T13:46:08.113Z,7.40
2023-02-22T13:48:47.060Z,7.10
2023-02-22T13:51:33.025Z,7.30
2023-02-22T13:54:00.028Z,7.27
2023-02-22T13:56:30.110Z,7.47
2023-02-22T13:58:58.809Z,7.73
2023-02-22T14:01:41.041Z,7.63
2023-02-22T14:04:28.484Z,7.23
2023-02-22T14:07:00.487Z,6.60
2023-02-22T14:09:45.441Z,6.37
2023-02-22T14:12:30.966Z,7.80
2023-02-22T14:15:28.182Z,7.20
2023-02-22T14:18:00.950Z,7.00
2023-02-22T14:20:32.074Z,6.60
2023-02-22T14:23:19.782Z,7.50
2023-02-22T14:25:47.246Z,7.43
2023-02-22T14:28:33.154Z,7.50
2023-02-22T14:31:08.103Z,7.70
2023-02-22T14:33:54.188Z,7.27
2023-02-22T14:36:27.005Z,7.73
2023-02-22T14:38:55.321Z,7.57
2023-02-22T14:41:26.481Z,7.53
2023-02-22T14:43:57.212Z,7.80
2023-02-22T14:46:27.709Z,8.03
2023-02-22T14:48:59.246Z,7.40
2023-02-22T14:51:37.420Z,8.90
2023-02-22T14:54:08.456Z,9.20
2023-02-22T14:56:41.196Z,8.00
2023-02-22T14:59:42.059Z,7.83
2023-02-22T15:02:12.985Z,7.03
2023-02-22T15:04:43.959Z,7.50
2023-02-22T15:07:22.496Z,8.47
2023-02-22T15:09:49.980Z,7.97
2023-02-22T15:12:29.777Z,8.27
2023-02-22T15:15:14.166Z,7.27
2023-02-22T15:17:41.441Z,7.90
2023-02-22T15:20:12.508Z,8.23
2023-02-22T15:22:39.522Z,8.40
2023-02-22T15:25:08.294Z,7.93
2023-02-22T15:27:37.323Z,7.87
2023-02-22T15:30:10.338Z,7.30
2023-02-22T15:32:49.974Z,8.77
2023-02-22T15:35:24.424Z,8.07
2023-02-22T15:38:06.050Z,9.90
2023-02-22T15:40:33.648Z,8.83
2023-02-22T15:43:11.019Z,8.60
2023-02-22T15:45:42.843Z,9.43
2023-02-22T15:48:11.327Z,9.70
2023-02-22T15:50:38.545Z,8.07
2023-02-22T15:53:10.056Z,10.10
2023-02-22T15:55:37.119Z,11.00
2023-02-22T15:58:10.776Z,10.30
2023-02-22T16:00:39.183Z,10.57
2023-02-22T16:03:09.249Z,9.57
2023-02-22T16:05:47.996Z,10.60
2023-02-22T16:08:17.902Z,10.00
2023-02-22T16:10:51.243Z,9.27
2023-02-22T16:13:32.148Z,9.60
2023-02-22T16:16:04.836Z,9.30
2023-02-22T16:18:31.826Z,9.87
2023-02-22T16:21:03.185Z,10.40
2023-02-22T16:23:30.621Z,9.27
2023-02-22T16:26:06.605Z,9.87
2023-02-22T16:28:35.608Z,8.03
2023-02-22T16:31:03.665Z,8.37
2023-02-22T16:33:33.790Z,9.30
2023-02-22T16:36:05.335Z,13.53
2023-02-22T16:38:33.352Z,12.93
2023-02-22T16:41:00.475Z,12.37
2023-02-22T16:43:33.297Z,10.63
2023-02-22T16:46:03.792Z,9.83
2023-02-22T16:48:38.406Z,9.30
2023-02-22T16:51:18.588Z,8.87
2023-02-22T16:53:45.733Z,9.90
2023-02-22T16:56:16.165Z,7.90
2023-02-22T16:58:43.874Z,7.60
2023-02-22T17:01:12.747Z,7.13
2023-02-22T17:03:40.137Z,8.13
2023-02-22T17:06:10.328Z,7.17
2023-02-22T17:08:38.396Z,7.30
2023-02-22T17:11:05.738Z,8.37
2023-02-22T17:13:32.960Z,9.00
2023-02-22T17:16:00.033Z,9.17
2023-02-22T17:18:28.696Z,13.13
2023-02-22T17:20:56.156Z,10.37
2023-02-22T17:23:24.179Z,11.03
2023-02-22T17:25:53.531Z,8.40
2023-02-22T17:28:21.187Z,8.10
2023-02-22T17:30:48.938Z,7.97
2023-02-22T17:33:17.926Z,9.00
2023-02-22T17:35:46.843Z,7.47
2023-02-22T17:38:18.292Z,8.73
2023-02-22T17:40:48.057Z,8.00
2023-02-22T17:43:15.537Z,7.80
2023-02-22T17:45:43.241Z,7.90
2023-02-22T17:48:10.382Z,8.03
2023-02-22T17:50:38.116Z,8.23
2023-02-22T17:53:05.563Z,7.80
2023-02-22T17:55:34.273Z,7.97
2023-02-22T17:58:01.569Z,7.60
2023-02-22T18:00:33.304Z,7.37
2023-02-22T18:03:02.496Z,7.97
2023-02-22T18:05:30.217Z,8.50
2023-02-22T18:07:57.297Z,8.30
2023-02-22T18:10:26.280Z,9.27
2023-02-22T18:12:55.072Z,8.20
2023-02-22T18:15:22.142Z,7.97
2023-02-22T18:17:49.346Z,7.73
2023-02-22T18:20:30.937Z,6.93
2023-02-22T18:22:59.617Z,8.37
2023-02-22T18:25:27.145Z,7.43
2023-02-22T18:27:54.887Z,7.53
2023-02-22T18:30:22.294Z,8.10
2023-02-22T18:32:49.812Z,7.70
2023-02-22T18:35:16.840Z,7.50
2023-02-22T18:37:44.490Z,7.73
2023-02-22T18:40:12.100Z,7.27
2023-02-22T18:42:39.716Z,7.60
2023-02-22T18:45:07.862Z,8.50
2023-02-22T18:47:42.179Z,7.90
2023-02-22T18:50:09.840Z,8.87
2023-02-22T18:52:46.320Z,8.57
2023-02-22T18:55:14.435Z,6.60
2023-02-22T18:57:41.644Z,7.60
2023-02-22T19:00:09.955Z,8.20
2023-02-22T19:02:37.213Z,8.93
2023-02-22T19:05:06.192Z,8.07
2023-02-22T19:07:34.105Z,9.63
2023-02-22T19:10:02.465Z,9.10
2023-02-22T19:12:31.465Z,9.47
2023-02-22T19:14:59.367Z,10.37
2023-02-22T19:17:28.420Z,9.70
2023-02-22T19:19:55.829Z,9.30
2023-02-22T19:22:25.932Z,8.83
2023-02-22T19:24:54.109Z,7.90
2023-02-22T19:27:22.680Z,7.70
2023-02-22T19:29:50.180Z,8.80
2023-02-22T19:32:17.733Z,8.37
2023-02-22T19:34:45.115Z,8.63
2023-02-22T19:37:13.008Z,8.47
2023-02-22T19:39:42.135Z,8.67
2023-02-22T19:42:10.176Z,7.50
2023-02-22T19:44:37.556Z,7.83
2023-02-22T19:47:08.896Z,8.10
2023-02-22T19:49:37.086Z,9.03
2023-02-22T19:52:06.533Z,7.60
2023-02-22T19:54:33.963Z,9.70
2023-02-22T19:57:01.190Z,7.87
2023-02-22T19:59:28.926Z,8.80
2023-02-22T20:01:56.586Z,9.43
2023-02-22T20:04:24.433Z,8.67
2023-02-22T20:06:54.431Z,8.40
2023-02-22T20:09:23.811Z,8.97
2023-02-22T20:11:54.247Z,8.20
2023-02-22T20:14:23.377Z,7.87
2023-02-22T20:16:51.165Z,9.97
2023-02-22T20:19:18.287Z,7.67
2023-02-22T20:21:45.351Z,9.00
2023-02-22T20:24:15.038Z,7.70
2023-02-22T20:26:43.183Z,7.73
2023-02-22T20:29:10.887Z,8.60
2023-02-22T20:31:39.321Z,7.80
2023-02-22T20:34:06.562Z,7.33
2023-02-22T20:36:37.171Z,8.63
2023-02-22T20:39:07.433Z,7.70
2023-02-22T20:41:35.204Z,8.10
2023-02-22T20:44:02.853Z,8.10
2023-02-22T20:46:37.374Z,9.50
2023-02-22T20:49:07.383Z,8.90
2023-02-22T20:51:34.907Z,7.60
2023-02-22T20:54:02.156Z,7.63
2023-02-22T20:56:30.408Z,7.50
2023-02-22T20:58:58.267Z,7.87
2023-02-22T21:01:25.660Z,8.50
2023-02-22T21:03:52.875Z,8.33
2023-02-22T21:06:21.620Z,9.10
2023-02-22T21:08:53.707Z,8.30
2023-02-22T21:11:21.388Z,7.37
2023-02-22T21:13:48.497Z,7.83
2023-02-22T21:16:23.641Z,7.00
2023-02-22T21:18:51.868Z,7.27
2023-02-22T21:21:19.411Z,8.13
2023-02-22T21:23:49.679Z,8.60
2023-02-22T21:26:17.928Z,8.10
2023-02-22T21:28:52.270Z,8.23
2023-02-22T21:31:24.350Z,8.23
2023-02-22T21:33:52.851Z,7.27
2023-02-22T21:36:20.422Z,7.23
2023-02-22T21:38:53.230Z,6.80
2023-02-22T21:41:21.321Z,8.37
2023-02-22T21:43:52.216Z,7.40
2023-02-22T21:46:19.742Z,8.70
2023-02-22T21:48:50.701Z,8.70
2023-02-22T21:51:23.247Z,8.30
2023-02-22T21:53:52.275Z,8.20
2023-02-22T21:56:22.992Z,7.50
2023-02-22T21:58:54.363Z,7.63
2023-02-22T22:01:21.787Z,8.80
2023-02-22T22:03:48.890Z,8.30
2023-02-22T22:06:15.893Z,7.90
2023-02-22T22:08:43.063Z,8.47
2023-02-22T22:11:11.112Z,8.20
2023-02-22T22:13:39.541Z,9.63
2023-02-22T22:16:08.400Z,8.03
2023-02-22T22:18:36.598Z,11.80
2023-02-22T22:21:10.779Z,13.53
2023-02-22T22:23:41.285Z,12.67
2023-02-22T22:26:11.558Z,11.43
2023-02-22T22:28:42.863Z,14.40
2023-02-22T22:31:10.608Z,12.67
2023-02-22T22:33:38.426Z,12.73
2023-02-22T22:36:06.122Z,16.73
2023-02-22T22:38:34.052Z,15.00
2023-02-22T22:41:01.459Z,14.63
2023-02-22T22:43:29.758Z,12.70
2023-02-22T22:46:00.562Z,12.80
2023-02-22T22:48:29.168Z,13.87
2023-02-22T22:50:57.095Z,12.10
2023-02-22T22:53:24.095Z,14.03
2023-02-22T22:55:51.110Z,14.30
2023-02-22T22:58:18.135Z,11.67
2023-02-22T23:00:46.220Z,11.53
2023-02-22T23:03:16.931Z,12.37
2023-02-22T23:05:44.180Z,12.50
2023-02-22T23:08:12.847Z,12.77
2023-02-22T23:10:40.593Z,13.53
2023-02-22T23:13:15.587Z,13.30
2023-02-22T23:15:43.433Z,15.83
2023-02-22T23:18:10.495Z,13.07
2023-02-22T23:20:38.975Z,14.43
2023-02-22T23:23:06.618Z,16.07
2023-02-22T23:25:34.396Z,14.20
2023-02-22T23:28:01.470Z,15.30
2023-02-22T23:30:28.815Z,15.57
2023-02-22T23:32:57.049Z,15.13
2023-02-22T23:35:24.143Z,15.00
2023-02-22T23:37:53.604Z,15.67
2023-02-22T23:40:21.644Z,14.63
2023-02-22T23:42:49.484Z,15.20
2023-02-22T23:45:23.875Z,15.60
2023-02-22T23:47:55.821Z,15.20
2023-02-22T23:50:23.909Z,15.60
2023-02-22T23:52:56.886Z,15.70
2023-02-22T23:55:28.255Z,15.50
2023-02-22T23:58:01.201Z,15.83
